Terminal Aerodrome Forecast
Issued by NWS Upton, NY

Home | Current Version | Previous Version | Text Only | Print | Product List | Glossary On
Versions: 1 2 3 4 5 6 7 8 9 10 11 12 13 14 15 16 17 18 19 20 21 22 23 24 25 26 27
000
FTUS41 KOKX 300230 AAA
TAFEWR
TAF AMD
KEWR 300230Z 3003/3106 21009KT P6SM BKN250
     FM300900 21009KT P6SM OVC100
     FM301100 21011KT P6SM SCT020 OVC050
     FM301400 24014KT P6SM SCT020 OVC050
     FM301800 26015G23KT P6SM BKN050
     FM302200 28016G25KT P6SM BKN050
     FM310100 29011KT P6SM FEW050=

USA.gov is the U.S. government's official web portal to all federal, state and local government web resources and services.